Current Weather

Northolt

Northolt, United Kingdom (EGWU)

Report from: Monday, July 22, 2024 10:20 AM BST
Current time: Monday, July 22, 2024 10:59 AM BST

Nearby weather – Weather history – Daily summaries
Weather forecast

Present weatherLight rain
Temperature20.0°C (68.0°F)
Dew point16.0°C (60.8°F)
Winds 13 kts (6.7 m/s, 15 mph) South-Southwest (210°)
Visibility6.2 mi. (10 km)
Clouds Ceiling: Broken clouds 600 ft. (183 m)
Broken clouds 1,200 ft. (366 m)
Overcast 3,000 ft. (914 m)
Altimeter29.94 in.Hg (1014 mB)
Relative humidity78 %
Density altitude810 ft. (247 m)
Flight conditions Instrument Meteorological Conditions
Raw dataEGWU 220920Z 21013KT 9999 BKN012 OVC030 20/16 Q1014 TEMPO 6000 -RA BKN006
An error has occurred. This application may no longer respond until reloaded. Reload 🗙